La Grande, OR

2:06 PM PDT on March 24, 2017 (GMT -0700)
La Grande | | Change Station

Elev 2835 ft 45.32 °N, 118.10 °W | Updated 26 seconds ago

Rain
Rain
45.7 °F
Feels Like 46 °F
N
0.0
Wind Variable Wind from South
Gusts 0.0 mph

Today
High -- | Low -- °F
--% Chance of Precip.
Yesterday
High -- | Low -- °F
Precip. -- in
Pressure 29.90 in
Visibility 10.0 miles
Clouds Mostly Cloudy 3000 ft
Overcast 3700 ft
Windchill 46 °F
Dew Point 37 °F
Humidity 71%
Rainfall 0.02 in
Snow Depth Not available.
6:47 AM 7:10 PM
Waning Crescent, 13% visible
METAR KLGD 242055Z AUTO 20010G14KT 10SM BKN030 OVC037 08/03 A2990 RMK AO1 52003
Pressure 29.90 in
Visibility 10.0 miles
Clouds Mostly Cloudy 3000 ft
Overcast 3700 ft
Windchill 46 °F
Dew Point 37 °F
Humidity 71%
Rainfall 0.02 in
Snow Depth Not available.
6:47 AM 7:10 PM
Waning Crescent, 13% visible
METAR KLGD 242055Z AUTO 20010G14KT 10SM BKN030 OVC037 08/03 A2990 RMK AO1 52003

Get Severe Weather Alerts

Thanks for signing up!

Be on the lookout for a verification email in your inbox.

You'll start receiving the daily forecast at 8 AM.

×

10-Day Weather Forecast

Almanac

Astronomy

Mar. 24, 2017 Rise Set
Actual Time
Civil Twilight
Nautical Twilight
Astronomical Twilight
Moon
Length of Visible Light
Length of Day
Tomorrow will be .
, % of the Moon is Illuminated

Today's Extremes

State Highs State Lows

Community

WunderPhotos

Upload Photos

1,962,540 photos uploaded!

WunderBlog® & News

Nearby

Air Quality

  Air Quality AQ Index Pollutant
Not available.

Snow Depth

Station Depth Elevation

Earthquake Activity

City Distance Mag. Time & Date
Minimum magnitude displayed is 2.5.

Earthquake Activity

City Distance Mag. Time & Date
Minimum magnitude displayed is 2.5.

Coastal Water Temperatures

Place Temperature

Stations

Nearby Weather Stations

Station Location Temp. Windchill Dew Point Humidity Wind Precip. Elev Updated Type
                   

Watches & Warnings

There are currently no watches in effect.